Time;durP1;ratioP1;P1;durP2;ratioP2;P2;SDS_P1;SDS_P2;PMS_P1;PMS_P2;Temp;Humidity;BMP_temperature;BMP_pressure;BME280_temperature;BME280_humidity;BME280_pressure;Samples;Min_cycle;Max_cycle;Signal;HPM_P1;HPM_P2
2022/11/01 00:00:08;;;;;;;12.75;5.05;;;;;;;9.68;66.00;93047.94;2051000;70;20518;-76
2022/11/01 00:02:38;;;;;;;15.68;5.80;;;;;;;9.78;64.93;93048.63;2051595;70;20208;-76
2022/11/01 00:05:05;;;;;;;12.10;5.60;;;;;;;9.85;65.43;93049.78;2051594;70;20171;-76
2022/11/01 00:07:31;;;;;;;10.77;5.15;;;;;;;9.93;64.36;93041.91;2050883;70;20165;-76
2022/11/01 00:09:56;;;;;;;13.27;5.32;;;;;;;9.72;65.12;93042.59;2051499;69;20216;-75
2022/11/01 00:12:23;;;;;;;12.73;4.70;;;;;;;9.90;64.16;93043.13;2051546;70;20220;-76
2022/11/01 00:14:49;;;;;;;11.05;5.10;;;;;;;9.91;64.26;93038.97;2051627;69;20161;-75
2022/11/01 00:17:14;;;;;;;11.77;4.95;;;;;;;9.86;63.78;93035.13;2051621;69;20174;-76
2022/11/01 00:19:40;;;;;;;11.20;4.88;;;;;;;9.62;65.84;93028.56;2051089;70;20146;-76
2022/11/01 00:22:06;;;;;;;12.95;5.40;;;;;;;9.84;65.19;93040.59;2051457;69;20231;-76
2022/11/01 00:24:32;;;;;;;13.98;5.30;;;;;;;9.76;65.27;93047.75;2051676;69;20182;-76
2022/11/01 00:26:59;;;;;;;10.85;5.18;;;;;;;9.64;66.59;93047.66;2051032;70;20146;-75
2022/11/01 00:29:25;;;;;;;15.85;6.15;;;;;;;9.54;65.79;93052.56;2051352;70;20141;-76
2022/11/01 00:31:50;;;;;;;15.00;5.13;;;;;;;9.54;65.43;93047.69;2051481;69;20159;-75
2022/11/01 00:34:16;;;;;;;12.15;5.30;;;;;;;9.48;67.10;93046.50;2051558;69;20500;-76
2022/11/01 00:36:42;;;;;;;9.50;4.78;;;;;;;9.58;66.05;93050.78;2051420;70;20669;-76
2022/11/01 00:39:12;;;;;;;11.52;4.97;;;;;;;9.62;65.32;93053.88;2051540;70;20182;-75
2022/11/01 00:41:38;;;;;;;12.13;5.30;;;;;;;9.58;65.99;93056.41;2051632;70;20142;-75
2022/11/01 00:44:03;;;;;;;12.88;5.70;;;;;;;9.06;67.46;93064.63;2051622;70;20225;-75
2022/11/01 00:46:30;;;;;;;13.77;6.03;;;;;;;9.26;66.67;93065.34;2051440;69;20644;-76
2022/11/01 00:48:57;;;;;;;12.73;5.57;;;;;;;9.46;65.83;93060.44;2051482;70;20163;-76
2022/11/01 00:51:23;;;;;;;11.43;3.90;;;;;;;9.56;65.36;93056.25;2051365;70;20145;-75
2022/11/01 00:53:50;;;;;;;9.57;3.45;;;;;;;9.75;64.43;93063.13;2051448;70;20511;-75
2022/11/01 00:56:16;;;;;;;7.28;3.33;;;;;;;9.78;65.03;93056.31;2051440;69;20135;-76
2022/11/01 00:58:41;;;;;;;14.38;2.95;;;;;;;9.67;64.65;93064.06;2051583;70;20154;-75
2022/11/01 01:01:07;;;;;;;9.68;4.82;;;;;;;9.22;66.29;93062.25;2051435;70;20171;-75
2022/11/01 01:03:33;;;;;;;12.18;5.20;;;;;;;9.44;65.87;93063.84;2051413;70;20142;-76
2022/11/01 01:05:59;;;;;;;13.63;6.30;;;;;;;9.12;66.23;93067.88;2051372;70;20170;-75
2022/11/01 01:08:25;;;;;;;11.32;5.43;;;;;;;9.34;66.43;93063.09;2051197;69;20213;-75
2022/11/01 01:10:51;;;;;;;9.32;4.47;;;;;;;9.49;64.97;93071.22;2051654;70;20138;-75
2022/11/01 01:13:17;;;;;;;12.15;4.50;;;;;;;9.41;64.97;93065.03;2051610;70;20134;-76
2022/11/01 01:15:43;;;;;;;11.43;4.63;;;;;;;9.35;65.87;93058.97;2051590;70;20217;-75
2022/11/01 01:18:09;;;;;;;11.10;4.10;;;;;;;9.37;65.25;93056.31;2051649;70;20151;-75
2022/11/01 01:20:35;;;;;;;10.70;3.60;;;;;;;9.54;64.68;93046.94;2051687;70;20244;-75
2022/11/01 01:23:01;;;;;;;9.15;2.90;;;;;;;9.57;64.40;93046.47;2051513;70;20154;-75
2022/11/01 01:25:27;;;;;;;9.93;2.92;;;;;;;9.63;65.17;93054.59;2051627;70;20149;-75
2022/11/01 01:27:54;;;;;;;11.27;3.83;;;;;;;9.21;66.35;93055.13;2051552;70;20250;-75
2022/11/01 01:30:19;;;;;;;9.63;4.05;;;;;;;9.37;65.07;93048.59;2051526;70;20580;-76
2022/11/01 01:32:45;;;;;;;11.85;4.43;;;;;;;9.34;65.40;93057.47;2051710;70;20591;-76
2022/11/01 01:35:10;;;;;;;9.93;4.30;;;;;;;9.30;65.14;93060.75;2051612;70;20221;-76
2022/11/01 01:37:36;;;;;;;9.77;3.50;;;;;;;9.41;65.50;93050.97;2051332;70;20154;-76
2022/11/01 01:40:02;;;;;;;9.43;4.10;;;;;;;9.39;64.97;93043.16;2051622;70;20173;-76
2022/11/01 01:42:30;;;;;;;9.38;3.42;;;;;;;9.28;65.80;93040.94;2051999;69;20153;-76
2022/11/01 01:44:55;;;;;;;7.03;2.30;;;;;;;9.45;65.19;93040.03;2051766;70;20606;-76
2022/11/01 01:47:24;;;;;;;9.98;3.65;;;;;;;9.56;64.63;93024.59;2052026;69;20189;-76
2022/11/01 01:49:55;;;;;;;9.77;4.30;;;;;;;9.49;64.55;93015.00;2051937;69;20146;-77
2022/11/01 01:52:21;;;;;;;12.82;4.93;;;;;;;9.43;64.86;93028.63;2051916;69;20153;-76
2022/11/01 01:54:49;;;;;;;10.60;3.60;;;;;;;9.38;65.09;93021.97;2051929;69;20162;-76
2022/11/01 01:57:16;;;;;;;9.15;3.17;;;;;;;9.42;63.78;93029.97;2051786;69;20177;-76
2022/11/01 01:59:42;;;;;;;8.05;2.30;;;;;;;9.39;64.19;93017.84;2049008;70;20197;-76
2022/11/01 02:02:09;;;;;;;10.73;3.78;;;;;;;9.18;65.24;93028.25;2051375;69;20621;-76
2022/11/01 02:04:48;;;;;;;7.22;2.90;;;;;;;9.31;64.54;93022.16;2051195;69;20257;-76
2022/11/01 02:07:15;;;;;;;6.60;2.40;;;;;;;9.38;64.55;93021.97;2051668;70;20587;-75
2022/11/01 02:09:42;;;;;;;7.45;1.98;;;;;;;9.57;63.67;93018.38;2051707;69;20278;-75
2022/11/01 02:12:10;;;;;;;29.20;14.10;;;;;;;9.03;65.70;93021.63;2051840;69;20162;-75
2022/11/01 02:14:39;;;;;;;24.25;11.98;;;;;;;9.28;65.12;93026.91;2051817;70;20149;-76
2022/11/01 02:17:35;;;;;;;17.50;8.10;;;;;;;9.51;64.17;93020.03;2051916;69;20276;-75
2022/11/01 02:20:14;;;;;;;19.60;8.45;;;;;;;9.07;65.53;93023.97;2051880;69;20209;-75
2022/11/01 02:23:02;;;;;;;10.43;4.97;;;;;;;9.25;65.19;93025.25;2051736;70;20526;-75
2022/11/01 02:25:43;;;;;;;10.57;5.18;;;;;;;9.38;64.56;93030.41;2051707;70;20687;-76
2022/11/01 02:28:39;;;;;;;11.18;5.03;;;;;;;9.54;63.87;93018.84;2051626;70;20606;-76
2022/11/01 02:31:23;;;;;;;7.90;3.10;;;;;;;9.51;63.40;93012.34;2051852;70;20568;-76
2022/11/01 02:34:00;;;;;;;9.68;4.30;;;;;;;9.36;64.15;93021.84;2051956;69;20173;-76
2022/11/01 02:37:09;;;;;;;10.18;4.40;;;;;;;9.49;63.95;93012.19;2048590;70;20142;-76
2022/11/01 02:39:43;;;;;;;8.65;3.83;;;;;;;9.56;63.34;93007.72;2047758;70;20238;-76
2022/11/01 02:42:14;;;;;;;8.65;3.78;;;;;;;9.03;65.34;93013.19;2047904;70;20210;-76
2022/11/01 02:44:44;;;;;;;12.43;5.60;;;;;;;9.27;64.33;93019.06;2047688;70;20576;-76
2022/11/01 02:47:11;;;;;;;13.70;5.47;;;;;;;9.30;64.40;93013.00;2047815;70;20159;-75
2022/11/01 02:49:42;;;;;;;15.00;6.45;;;;;;;9.33;64.82;93019.50;2047828;70;20237;-76
2022/11/01 02:52:13;;;;;;;12.25;5.28;;;;;;;9.15;65.37;93018.94;2047476;70;20225;-75
2022/11/01 02:54:42;;;;;;;16.60;4.22;;;;;;;9.24;65.31;93011.81;2044935;70;20591;-76
2022/11/01 02:57:22;;;;;;;7.10;3.92;;;;;;;9.14;64.50;93003.41;2047623;70;20163;-75
2022/11/01 02:59:48;;;;;;;11.80;4.65;;;;;;;9.02;66.10;93025.00;2047643;70;20305;-74
2022/11/01 03:02:40;;;;;;;8.77;4.57;;;;;;;9.18;65.85;93029.00;2044943;70;20238;-75
2022/11/01 03:05:21;;;;;;;12.43;3.47;;;;;;;9.20;65.05;93017.16;2047611;70;20235;-75
2022/11/01 03:07:51;;;;;;;23.75;10.73;;;;;;;9.27;64.94;93028.22;2047419;70;20388;-75
2022/11/01 03:10:20;;;;;;;16.13;8.20;;;;;;;9.29;65.11;93028.34;2047511;70;20244;-75
2022/11/01 03:13:09;;;;;;;13.15;5.82;;;;;;;9.38;64.24;93030.41;2048664;70;20326;-75
2022/11/01 03:15:44;;;;;;;12.20;6.50;;;;;;;9.29;64.30;93033.97;2051771;69;20221;-75
2022/11/01 03:18:18;;;;;;;13.18;6.50;;;;;;;9.26;64.77;93043.63;2051820;69;20145;-76
2022/11/01 03:20:58;;;;;;;11.27;6.45;;;;;;;9.30;63.98;93038.28;2051329;70;20582;-75
2022/11/01 03:23:42;;;;;;;19.38;7.50;;;;;;;9.23;65.14;93032.81;2051732;70;20245;-75
2022/11/01 03:26:10;;;;;;;32.45;14.95;;;;;;;9.18;64.50;93031.06;2051084;70;20150;-75
2022/11/01 03:28:48;;;;;;;33.30;15.63;;;;;;;9.24;64.87;93034.28;2051737;69;20146;-76
2022/11/01 03:31:22;;;;;;;16.38;6.88;;;;;;;9.30;64.22;93015.81;2051375;70;20142;-76
2022/11/01 03:33:56;;;;;;;15.55;6.10;;;;;;;9.36;63.77;93013.41;2051819;69;20205;-76
2022/11/01 03:36:25;;;;;;;11.40;5.15;;;;;;;9.32;63.65;93010.31;2051638;69;20318;-76
2022/11/01 03:38:57;;;;;;;17.55;7.55;;;;;;;9.20;63.98;93015.06;2051218;70;20150;-76
2022/11/01 03:41:25;;;;;;;14.40;5.85;;;;;;;9.26;64.80;93017.59;2051153;70;20220;-76
2022/11/01 03:43:52;;;;;;;11.05;4.88;;;;;;;9.13;64.21;93018.81;2051751;69;20177;-76
2022/11/01 03:46:18;;;;;;;12.18;3.85;;;;;;;9.27;63.91;93027.50;2051568;69;20156;-75
2022/11/01 03:48:44;;;;;;;9.80;4.32;;;;;;;8.83;65.16;93026.50;2051714;70;20670;-76
2022/11/01 03:51:10;;;;;;;11.48;4.30;;;;;;;8.55;66.69;93035.69;2050991;70;20141;-76
2022/11/01 03:53:35;;;;;;;8.95;4.10;;;;;;;8.63;66.83;93025.06;2051734;70;20150;-76
2022/11/01 03:56:01;;;;;;;9.07;4.47;;;;;;;8.83;65.76;93011.75;2051794;70;20673;-75
2022/11/01 03:58:40;;;;;;;8.95;3.72;;;;;;;8.65;65.73;93022.38;2051753;70;20157;-76
2022/11/01 04:01:07;;;;;;;10.40;3.42;;;;;;;8.68;67.23;93031.69;2051648;70;20629;-75
2022/11/01 04:03:33;;;;;;;9.40;3.65;;;;;;;8.95;64.78;93025.94;2051420;69;20230;-75
2022/11/01 04:05:59;;;;;;;8.55;3.95;;;;;;;8.82;65.02;93027.13;2051633;69;20150;-74
2022/11/01 04:08:24;;;;;;;10.60;3.10;;;;;;;8.73;66.01;93027.84;2051453;69;20578;-75
2022/11/01 04:10:50;;;;;;;8.15;2.80;;;;;;;8.80;65.83;93027.72;2051162;70;20139;-76
2022/11/01 04:13:15;;;;;;;7.68;2.88;;;;;;;8.93;65.09;93029.31;2051947;70;20142;-76
2022/11/01 04:21:13;;;;;;;8.35;2.85;;;;;;;8.93;65.11;93023.69;2051847;70;20147;-76
2022/11/01 04:23:40;;;;;;;8.70;2.33;;;;;;;9.02;64.43;93027.81;2051667;70;20685;-76
2022/11/01 04:26:06;;;;;;;7.65;2.33;;;;;;;9.01;64.04;93032.69;2051567;70;20134;-76
2022/11/01 04:28:32;;;;;;;4.13;2.38;;;;;;;9.01;64.88;93041.13;2051614;69;20177;-75
2022/11/01 04:30:58;;;;;;;5.78;2.50;;;;;;;9.06;64.53;93044.97;2051634;69;20138;-75
2022/11/01 04:33:24;;;;;;;6.10;2.28;;;;;;;8.84;65.32;93042.03;2051571;69;20135;-75
2022/11/01 04:35:50;;;;;;;7.35;3.17;;;;;;;8.78;64.97;93052.09;2051607;69;20225;-75
2022/11/01 04:38:16;;;;;;;7.93;2.80;;;;;;;8.71;65.68;93052.97;2050976;70;20146;-75
2022/11/01 04:40:43;;;;;;;6.75;2.33;;;;;;;8.68;65.72;93052.09;2051216;70;20142;-75
2022/11/01 04:43:10;;;;;;;6.07;2.42;;;;;;;8.67;64.97;93044.25;2051623;70;20249;-76
2022/11/01 04:45:35;;;;;;;8.30;2.92;;;;;;;8.50;66.30;93045.13;2051484;70;20233;-77
2022/11/01 04:48:06;;;;;;;9.85;3.20;;;;;;;8.68;66.27;93046.47;2051568;70;20134;-77
2022/11/01 04:50:34;;;;;;;6.75;2.38;;;;;;;8.76;65.37;93041.44;2051518;70;20256;-75
2022/11/01 04:53:00;;;;;;;6.25;2.47;;;;;;;8.80;64.58;93038.22;2051379;70;20123;-75
2022/11/01 04:55:26;;;;;;;8.45;3.10;;;;;;;8.39;65.87;93043.66;2050938;70;20138;-75
2022/11/01 04:57:52;;;;;;;7.72;3.05;;;;;;;8.46;66.49;93037.16;2050909;70;20613;-75
2022/11/01 05:00:19;;;;;;;10.65;3.47;;;;;;;8.46;66.79;93044.81;2051351;70;20149;-75
2022/11/01 05:02:44;;;;;;;6.65;3.25;;;;;;;8.53;65.75;93041.88;2051451;70;20146;-75
2022/11/01 05:05:11;;;;;;;9.70;3.63;;;;;;;8.58;66.11;93031.69;2051335;70;20157;-75
2022/11/01 05:07:37;;;;;;;6.72;3.00;;;;;;;8.67;66.52;93030.22;2050910;70;20150;-75
2022/11/01 05:10:04;;;;;;;10.23;3.30;;;;;;;8.35;67.10;93029.28;2051472;70;20240;-75
2022/11/01 05:12:30;;;;;;;7.15;3.53;;;;;;;8.45;67.26;93037.75;2051463;70;20158;-75
2022/11/01 05:14:55;;;;;;;10.13;3.40;;;;;;;8.49;67.27;93040.84;2051554;70;20499;-75
2022/11/01 05:17:21;;;;;;;15.75;5.75;;;;;;;8.66;66.34;93035.09;2051986;69;20146;-75
2022/11/01 05:19:47;;;;;;;11.48;4.47;;;;;;;8.81;66.15;93048.84;2051477;70;20234;-76
2022/11/01 05:22:13;;;;;;;7.82;3.45;;;;;;;8.74;65.74;93048.97;2051737;70;20191;-75
2022/11/01 05:24:38;;;;;;;6.60;3.53;;;;;;;8.80;66.61;93052.25;2051874;69;20149;-75
2022/11/01 05:27:04;;;;;;;10.35;3.00;;;;;;;8.78;66.74;93047.19;2051931;69;20646;-75
2022/11/01 05:29:30;;;;;;;7.57;3.00;;;;;;;8.79;66.59;93054.28;2051904;69;20178;-75
2022/11/01 05:31:55;;;;;;;8.80;2.85;;;;;;;8.59;67.38;93052.81;2051769;69;20146;-74
2022/11/01 05:34:22;;;;;;;8.30;4.63;;;;;;;8.63;66.72;93051.03;2051914;70;20162;-75
2022/11/01 05:36:47;;;;;;;9.43;4.53;;;;;;;8.62;67.13;93034.81;2051181;70;20202;-75
2022/11/01 05:39:13;;;;;;;11.70;4.93;;;;;;;8.53;67.19;93041.88;2051904;70;20150;-75
2022/11/01 05:41:41;;;;;;;9.40;4.45;;;;;;;8.62;67.75;93048.84;2051833;70;20218;-75
2022/11/01 05:44:07;;;;;;;11.80;4.40;;;;;;;8.72;66.62;93043.97;2051814;69;20135;-75
2022/11/01 05:46:33;;;;;;;8.93;3.10;;;;;;;8.89;65.74;93045.88;2051718;69;20617;-75
2022/11/01 05:48:58;;;;;;;9.18;3.30;;;;;;;9.06;64.88;93047.78;2051891;69;20166;-75
2022/11/01 05:51:24;;;;;;;8.55;3.58;;;;;;;9.10;65.34;93045.25;2051809;70;20134;-74
2022/11/01 05:53:50;;;;;;;8.20;3.65;;;;;;;9.25;64.81;93044.94;2052113;70;20133;-75
2022/11/01 05:56:17;;;;;;;10.13;3.40;;;;;;;9.17;65.22;93044.38;2051931;69;20138;-75
2022/11/01 05:58:43;;;;;;;9.52;3.65;;;;;;;9.21;65.19;93063.56;2051457;69;20614;-75
2022/11/01 06:01:09;;;;;;;9.38;3.65;;;;;;;9.21;65.33;93055.13;2051888;69;20221;-76
2022/11/01 06:03:35;;;;;;;5.65;2.88;;;;;;;9.31;65.26;93051.00;2051860;70;20173;-74
2022/11/01 06:06:01;;;;;;;31.98;16.25;;;;;;;9.01;66.31;93062.84;2051267;70;20663;-75
2022/11/01 06:08:26;;;;;;;31.17;16.70;;;;;;;9.10;65.86;93068.47;2051704;70;20154;-76
2022/11/01 06:10:52;;;;;;;21.27;12.80;;;;;;;9.01;66.01;93060.06;2051875;70;20268;-75
2022/11/01 06:13:18;;;;;;;24.48;13.57;;;;;;;9.13;66.09;93070.09;2051231;70;20150;-75
2022/11/01 06:15:44;;;;;;;22.02;11.23;;;;;;;9.25;65.88;93075.09;2051665;70;20150;-76
2022/11/01 06:18:10;;;;;;;15.98;8.73;;;;;;;9.36;65.05;93069.63;2051748;70;20634;-76
2022/11/01 06:20:37;;;;;;;13.50;6.25;;;;;;;9.45;64.38;93070.19;2052008;69;20148;-75
2022/11/01 06:23:10;;;;;;;8.65;4.20;;;;;;;9.50;64.30;93075.50;2051686;69;20204;-76
2022/11/01 06:25:36;;;;;;;21.83;11.48;;;;;;;9.31;65.70;93084.72;2051720;70;20646;-76
2022/11/01 06:28:03;;;;;;;19.35;11.50;;;;;;;9.48;64.83;93088.66;2051711;70;20153;-75
2022/11/01 06:30:29;;;;;;;25.05;12.82;;;;;;;9.25;66.55;93091.94;2051853;70;20142;-75
2022/11/01 06:33:05;;;;;;;28.55;15.93;;;;;;;9.21;66.83;93086.81;2051845;69;20138;-75
2022/11/01 06:35:32;;;;;;;24.35;13.07;;;;;;;9.41;66.29;93093.13;2051928;70;20158;-76
2022/11/01 06:38:05;;;;;;;19.80;11.52;;;;;;;9.60;66.25;93089.53;2051788;69;20161;-77
2022/11/01 06:40:32;;;;;;;15.68;9.23;;;;;;;9.78;66.29;93090.06;2051724;69;20154;-76
2022/11/01 06:43:04;;;;;;;14.68;8.13;;;;;;;9.92;65.46;93088.97;2051704;70;20153;-77
2022/11/01 06:45:31;;;;;;;18.48;7.78;;;;;;;10.05;64.83;93101.06;2051227;70;20562;-77
2022/11/01 06:47:57;;;;;;;12.75;6.90;;;;;;;10.16;64.26;93100.41;2051753;69;20237;-77
2022/11/01 06:50:23;;;;;;;20.63;9.80;;;;;;;9.83;65.40;93098.19;2051733;69;20158;-77
2022/11/01 06:52:48;;;;;;;14.25;7.97;;;;;;;10.01;64.81;93112.03;2051863;69;20150;-77
2022/11/01 06:55:14;;;;;;;25.92;15.07;;;;;;;10.07;65.22;93101.19;2053679;70;20245;-77
2022/11/01 06:57:40;;;;;;;19.02;10.80;;;;;;;10.16;65.44;93108.88;2055138;69;20157;-77
2022/11/01 07:00:08;;;;;;;19.60;9.55;;;;;;;10.26;64.79;93106.03;2054576;69;20150;-78
2022/11/01 07:02:34;;;;;;;16.58;9.40;;;;;;;10.30;65.84;93112.66;2055072;69;20514;-77
2022/11/01 07:05:00;;;;;;;16.90;8.90;;;;;;;10.35;65.78;93108.06;2055046;69;20145;-77
2022/11/01 07:07:26;;;;;;;19.50;10.43;;;;;;;10.39;65.15;93111.16;2054298;69;20229;-77
2022/11/01 07:09:51;;;;;;;30.40;16.58;;;;;;;10.28;65.55;93117.44;2054980;69;20323;-76
2022/11/01 07:12:17;;;;;;;31.38;17.90;;;;;;;10.12;66.17;93123.38;2054996;69;20137;-76
2022/11/01 07:14:43;;;;;;;26.55;13.20;;;;;;;10.25;65.87;93115.81;2055104;69;20279;-77
2022/11/01 07:17:08;;;;;;;18.70;10.60;;;;;;;10.40;65.79;93119.00;2055069;69;20184;-77
2022/11/01 07:19:34;;;;;;;19.92;11.80;;;;;;;10.46;65.19;93112.31;2054942;69;20161;-77
2022/11/01 07:22:00;;;;;;;23.33;12.52;;;;;;;10.21;66.03;93116.25;2054902;69;20153;-78
2022/11/01 07:24:26;;;;;;;18.83;11.10;;;;;;;10.52;65.39;93116.28;2055129;69;20150;-76
2022/11/01 07:26:51;;;;;;;22.02;12.57;;;;;;;10.54;65.18;93119.22;2054946;69;20157;-76
2022/11/01 07:29:19;;;;;;;26.08;14.68;;;;;;;10.65;64.39;93112.19;2055078;69;20209;-77
2022/11/01 07:31:45;;;;;;;31.27;15.10;;;;;;;10.74;64.50;93128.28;2054984;69;20164;-77
2022/11/01 07:34:10;;;;;;;34.47;15.63;;;;;;;10.77;64.79;93132.72;2054997;69;20154;-78
2022/11/01 07:36:37;;;;;;;30.95;15.95;;;;;;;10.85;64.68;93126.88;2054929;69;20148;-77
2022/11/01 07:39:02;;;;;;;29.77;15.98;;;;;;;10.89;64.00;93138.41;2054325;69;20158;-78
2022/11/01 07:41:28;;;;;;;34.28;16.63;;;;;;;10.91;63.24;93132.94;2055097;69;20162;-77
2022/11/01 07:43:55;;;;;;;33.05;16.05;;;;;;;11.01;62.93;93138.50;2054359;69;20167;-76
2022/11/01 07:46:21;;;;;;;30.05;14.50;;;;;;;10.92;64.09;93140.78;2055081;69;20598;-75
2022/11/01 07:48:46;;;;;;;25.13;12.95;;;;;;;10.96;64.59;93134.69;2055012;69;20141;-76
2022/11/01 07:51:12;;;;;;;25.27;12.85;;;;;;;11.07;64.17;93136.06;2054803;69;20162;-76
2022/11/01 07:53:37;;;;;;;29.48;15.48;;;;;;;10.65;65.99;93134.72;2054981;69;20142;-76
2022/11/01 07:56:06;;;;;;;31.55;16.10;;;;;;;10.90;65.81;93140.66;2054946;69;20154;-75
2022/11/01 07:58:35;;;;;;;35.08;16.92;;;;;;;11.01;66.11;93139.25;2054979;69;20154;-76
2022/11/01 08:01:00;;;;;;;33.25;17.23;;;;;;;11.08;65.14;93140.38;2054957;69;20225;-75
2022/11/01 08:03:26;;;;;;;30.92;16.73;;;;;;;10.96;65.21;93136.75;2054934;69;20146;-78
2022/11/01 08:05:52;;;;;;;27.05;15.50;;;;;;;11.12;64.58;93135.72;2054800;69;20142;-77
2022/11/01 08:08:18;;;;;;;28.35;14.88;;;;;;;11.14;65.17;93133.06;2054202;70;20203;-78
2022/11/01 08:10:44;;;;;;;25.38;14.82;;;;;;;11.21;64.90;93131.38;2055178;69;20138;-79
2022/11/01 08:13:14;;;;;;;27.75;14.85;;;;;;;11.33;64.79;93128.63;2055126;69;20150;-77
2022/11/01 08:15:40;;;;;;;22.65;12.50;;;;;;;11.24;64.32;93132.97;2054709;69;20153;-75
2022/11/01 08:18:05;;;;;;;29.05;14.75;;;;;;;11.16;63.95;93129.63;2051687;70;20130;-78
2022/11/01 08:20:31;;;;;;;32.88;20.15;;;;;;;11.27;64.04;93123.31;2051686;69;20603;-76
2022/11/01 08:22:58;;;;;;;34.50;19.05;;;;;;;11.49;64.00;93126.09;2051582;69;20180;-76
2022/11/01 08:25:24;;;;;;;39.25;21.55;;;;;;;11.63;63.60;93122.09;2048660;70;20162;-75
2022/11/01 08:27:50;;;;;;;35.38;20.65;;;;;;;11.39;64.78;93120.53;2051094;70;20142;-76
2022/11/01 08:30:17;;;;;;;41.95;23.45;;;;;;;11.70;63.38;93128.88;2051248;70;20610;-76
2022/11/01 08:32:44;;;;;;;42.92;22.55;;;;;;;11.85;63.65;93131.25;2051846;70;20181;-76
2022/11/01 08:35:11;;;;;;;31.00;19.48;;;;;;;11.97;63.33;93133.38;2051651;69;20190;-74
2022/11/01 08:37:46;;;;;;;64.35;32.17;;;;;;;11.35;64.99;93125.91;2051483;69;20147;-77
2022/11/01 08:40:12;;;;;;;50.80;28.85;;;;;;;11.37;65.29;93138.06;2051768;70;20178;-77
2022/11/01 08:42:38;;;;;;;33.85;17.52;;;;;;;11.70;63.91;93135.25;2051684;69;20245;-77
2022/11/01 08:45:05;;;;;;;32.60;17.85;;;;;;;11.87;63.06;93136.31;2051632;70;20226;-77
2022/11/01 08:47:30;;;;;;;28.17;16.52;;;;;;;12.00;62.77;93140.59;2052182;70;20237;-77
2022/11/01 08:49:58;;;;;;;30.75;16.35;;;;;;;12.04;62.84;93141.59;2050484;69;20606;-77
2022/11/01 08:52:24;;;;;;;30.05;15.80;;;;;;;12.19;62.18;93149.63;2051041;70;20154;-77
2022/11/01 08:54:50;;;;;;;46.15;27.85;;;;;;;11.98;63.87;93143.31;2051082;70;20142;-77
2022/11/01 08:57:16;;;;;;;29.60;18.02;;;;;;;11.87;64.21;93137.03;2051751;69;20177;-76
2022/11/01 08:59:41;;;;;;;35.25;20.77;;;;;;;11.98;64.26;93146.13;2051745;70;20530;-78
2022/11/01 09:02:10;;;;;;;64.90;34.50;;;;;;;12.12;63.63;93161.13;2051663;70;20153;-77
2022/11/01 09:04:37;;;;;;;140.57;72.05;;;;;;;12.03;64.21;93151.41;2050686;70;20147;-77
2022/11/01 09:07:04;;;;;;;126.38;65.38;;;;;;;12.23;63.85;93145.56;2050592;70;20189;-80
2022/11/01 09:09:30;;;;;;;103.20;54.40;;;;;;;12.30;63.27;93144.59;2049837;70;20228;-78
2022/11/01 09:11:55;;;;;;;92.93;50.20;;;;;;;12.42;63.94;93151.00;2050732;70;20154;-78
2022/11/01 09:14:23;;;;;;;87.20;47.50;;;;;;;12.45;64.12;93147.66;2050854;70;20145;-77
2022/11/01 09:16:51;;;;;;;90.13;47.92;;;;;;;12.53;63.71;93146.69;2050978;70;20258;-79
2022/11/01 09:19:21;;;;;;;73.88;40.67;;;;;;;12.58;63.26;93149.13;2050923;70;20138;-78
2022/11/01 09:21:46;;;;;;;98.13;51.35;;;;;;;12.72;62.93;93152.06;2051435;70;20243;-78
2022/11/01 09:24:13;;;;;;;78.22;41.03;;;;;;;12.86;63.68;93143.72;2051754;70;20158;-78
2022/11/01 09:26:39;;;;;;;96.63;53.33;;;;;;;12.64;63.22;93152.31;2050955;70;20658;-78
2022/11/01 09:29:05;;;;;;;78.45;41.63;;;;;;;12.71;63.29;93148.50;2051038;70;20146;-78
2022/11/01 09:31:32;;;;;;;77.15;42.15;;;;;;;12.95;62.60;93154.13;2051750;70;20240;-80
2022/11/01 09:33:59;;;;;;;107.97;56.88;;;;;;;13.05;62.58;93156.81;2051559;70;20162;-78
2022/11/01 09:36:26;;;;;;;80.90;44.72;;;;;;;13.17;62.12;93161.09;2051566;70;20206;-78
2022/11/01 09:38:54;;;;;;;55.00;30.33;;;;;;;13.45;60.64;93155.66;2051698;70;20150;-78
2022/11/01 09:41:35;;;;;;;57.85;32.53;;;;;;;13.69;61.38;93159.13;2051455;70;20158;-75
2022/11/01 09:44:04;;;;;;;58.37;32.87;;;;;;;13.73;60.54;93151.59;2051652;69;20175;-76
2022/11/01 09:46:39;;;;;;;47.55;25.20;;;;;;;13.75;60.28;93155.94;2051322;70;20161;-76
2022/11/01 09:49:11;;;;;;;43.88;24.30;;;;;;;13.85;58.54;93150.81;2051472;69;20230;-77
2022/11/01 09:51:37;;;;;;;35.85;21.33;;;;;;;13.99;58.26;93154.44;2051166;69;20231;-77
2022/11/01 09:54:03;;;;;;;40.03;23.33;;;;;;;14.24;58.67;93151.56;2051254;69;20597;-77
2022/11/01 09:56:53;;;;;;;40.70;22.30;;;;;;;14.53;57.76;93146.75;2051562;70;20163;-76
2022/11/01 09:59:39;;;;;;;34.70;19.23;;;;;;;14.63;56.92;93150.13;2051374;70;20582;-75
2022/11/01 10:02:33;;;;;;;73.47;41.78;;;;;;;14.86;58.05;93144.25;2051549;70;20139;-76
2022/11/01 10:05:19;;;;;;;89.18;48.67;;;;;;;15.17;56.42;93152.22;2052234;70;20217;-76
2022/11/01 10:07:57;;;;;;;86.75;50.28;;;;;;;15.36;57.45;93150.31;2052058;70;20156;-78
2022/11/01 10:10:47;;;;;;;53.90;27.58;;;;;;;15.41;54.38;93147.03;2051886;69;20314;-76
2022/11/01 10:13:31;;;;;;;51.50;28.63;;;;;;;15.37;53.47;93146.09;2051944;69;20146;-77
2022/11/01 10:16:19;;;;;;;52.35;29.83;;;;;;;15.53;53.58;93144.06;2051947;69;20138;-76
2022/11/01 10:18:53;;;;;;;51.58;28.33;;;;;;;15.73;53.59;93141.53;2051957;69;20150;-76
2022/11/01 10:21:22;;;;;;;46.40;27.40;;;;;;;16.06;54.21;93129.63;2051195;70;20142;-76
2022/11/01 10:23:49;;;;;;;42.50;25.88;;;;;;;16.17;53.48;93140.09;2051889;70;20633;-76
2022/11/01 10:26:29;;;;;;;39.63;25.35;;;;;;;16.29;53.30;93136.34;2051988;69;20309;-76
2022/11/01 10:29:03;;;;;;;40.53;22.75;;;;;;;16.47;52.44;93132.25;2051933;70;20637;-77
2022/11/01 10:31:36;;;;;;;44.05;27.08;;;;;;;16.85;51.34;93126.13;2051880;70;20241;-80
2022/11/01 10:34:24;;;;;;;39.78;23.85;;;;;;;17.23;51.07;93129.94;2051984;70;20142;-78
2022/11/01 10:36:51;;;;;;;37.05;23.98;;;;;;;17.25;49.86;93124.31;2051636;70;20245;-77
2022/11/01 10:39:41;;;;;;;32.30;17.67;;;;;;;17.88;46.96;93132.66;2051806;69;20142;-77
2022/11/01 10:42:12;;;;;;;30.75;16.73;;;;;;;17.56;48.11;93128.47;2051715;69;20138;-77
2022/11/01 10:44:54;;;;;;;25.40;16.40;;;;;;;17.50;49.77;93126.81;2051995;69;20150;-77
2022/11/01 10:47:22;;;;;;;43.47;23.60;;;;;;;17.35;51.29;93136.13;2051835;70;20154;-76
2022/11/01 10:49:53;;;;;;;37.97;21.38;;;;;;;17.18;51.23;93125.41;2051949;69;20153;-77
2022/11/01 10:52:25;;;;;;;34.65;20.67;;;;;;;17.22;50.21;93122.75;2051644;70;20574;-76
2022/11/01 10:54:55;;;;;;;26.45;17.35;;;;;;;17.11;51.36;93120.88;2051799;69;20274;-76
2022/11/01 10:57:45;;;;;;;31.75;17.73;;;;;;;17.06;51.46;93131.34;2051732;70;20149;-77
2022/11/01 11:00:21;;;;;;;33.17;19.27;;;;;;;16.86;51.89;93116.22;2051732;70;20601;-76
2022/11/01 11:02:51;;;;;;;30.67;18.90;;;;;;;16.69;53.44;93111.91;2051803;69;20161;-77
2022/11/01 11:05:19;;;;;;;32.08;17.90;;;;;;;16.59;53.19;93102.94;2051779;70;20279;-78
2022/11/01 11:07:45;;;;;;;33.67;17.70;;;;;;;16.68;53.46;93101.91;2051839;70;20145;-78
2022/11/01 11:10:22;;;;;;;28.00;15.85;;;;;;;16.57;53.84;93105.66;2051669;69;20146;-77
2022/11/01 11:12:51;;;;;;;24.27;14.90;;;;;;;16.71;52.84;93106.28;2051820;69;20617;-77
2022/11/01 11:15:32;;;;;;;25.95;14.35;;;;;;;16.52;54.09;93107.59;2051641;69;20598;-77
2022/11/01 11:18:02;;;;;;;25.85;12.27;;;;;;;16.48;53.85;93104.56;2051440;70;20241;-79
2022/11/01 11:20:33;;;;;;;19.45;10.73;;;;;;;16.33;54.20;93103.19;2051854;70;20146;-77
2022/11/01 11:23:01;;;;;;;23.58;12.50;;;;;;;16.37;53.80;93108.31;2051639;69;20222;-78
2022/11/01 11:25:35;;;;;;;22.10;12.80;;;;;;;16.20;52.93;93104.00;2051663;69;20154;-77
2022/11/01 11:28:02;;;;;;;23.42;10.35;;;;;;;16.14;53.12;93112.25;2051708;69;20166;-77
2022/11/01 11:30:33;;;;;;;18.15;9.00;;;;;;;16.33;53.13;93114.53;2052531;70;20239;-77
2022/11/01 11:33:01;;;;;;;17.67;8.15;;;;;;;16.24;52.98;93113.44;2052085;69;20146;-77
2022/11/01 11:35:31;;;;;;;17.70;8.23;;;;;;;16.22;53.81;93109.78;2051708;70;20151;-79
2022/11/01 11:38:03;;;;;;;17.40;9.00;;;;;;;16.22;53.72;93104.84;2051062;70;20237;-77
2022/11/01 11:40:37;;;;;;;19.20;9.80;;;;;;;16.32;53.47;93103.84;2051452;70;20197;-77
2022/11/01 11:43:21;;;;;;;21.75;10.05;;;;;;;16.42;53.46;93090.81;2051621;70;20546;-77